createdAt,value
2016-05-05T00:00:59.464Z,17.78
2016-05-05T00:02:02.451Z,17.73
2016-05-05T00:02:59.375Z,17.76
2016-05-05T00:03:59.394Z,17.79
2016-05-05T00:04:59.286Z,17.75
2016-05-05T00:06:02.461Z,17.75
2016-05-05T00:07:02.214Z,17.72
2016-05-05T00:08:02.013Z,17.76
2016-05-05T00:08:59.126Z,17.75
2016-05-05T00:10:02.066Z,17.75
2016-05-05T00:11:02.538Z,17.78
2016-05-05T00:11:58.977Z,17.78
2016-05-05T00:13:01.996Z,17.78
2016-05-05T00:13:58.749Z,17.78
2016-05-05T00:14:58.844Z,17.76
2016-05-05T00:16:01.801Z,17.72
2016-05-05T00:16:58.974Z,17.82
2016-05-05T00:17:58.682Z,17.75
2016-05-05T00:19:01.668Z,17.79
2016-05-05T00:20:02.187Z,17.8
2016-05-05T00:21:04.643Z,17.73
2016-05-05T00:21:58.535Z,17.73
2016-05-05T00:22:58.335Z,17.87
2016-05-05T00:24:02.041Z,17.8
2016-05-05T00:24:58.403Z,17.76
2016-05-05T00:25:58.546Z,17.72
2016-05-05T00:26:58.143Z,17.78
2016-05-05T00:27:58.254Z,17.75
2016-05-05T00:29:01.211Z,17.78
2016-05-05T00:30:01.166Z,17.76
2016-05-05T00:31:01.342Z,17.72
2016-05-05T00:32:06.953Z,17.78
2016-05-05T00:32:57.890Z,17.75
2016-05-05T00:34:00.990Z,17.72
2016-05-05T00:34:57.928Z,17.78
2016-05-05T00:36:01.105Z,17.76
2016-05-05T00:36:57.870Z,17.71
2016-05-05T00:38:00.813Z,17.76
2016-05-05T00:39:00.613Z,17.79
2016-05-05T00:39:57.784Z,17.75
2016-05-05T00:40:57.661Z,17.68
2016-05-05T00:41:57.868Z,17.73
2016-05-05T00:42:57.417Z,17.78
2016-05-05T00:43:57.389Z,17.75
2016-05-05T00:44:57.344Z,17.73
2016-05-05T00:45:57.472Z,17.76
2016-05-05T00:46:57.427Z,17.73
2016-05-05T00:47:57.385Z,17.75
2016-05-05T00:49:00.327Z,17.73
2016-05-05T00:49:57.265Z,17.79
2016-05-05T00:50:57.063Z,17.72
2016-05-05T00:51:57.177Z,17.76
2016-05-05T00:52:59.854Z,17.76
2016-05-05T00:53:59.965Z,17.78
2016-05-05T00:54:59.937Z,17.79
2016-05-05T00:56:05.940Z,17.78
2016-05-05T00:56:57.518Z,17.79
2016-05-05T00:57:56.896Z,17.79
2016-05-05T00:58:56.883Z,17.79
2016-05-05T00:59:59.825Z,17.78
2016-05-05T01:00:56.825Z,17.72
2016-05-05T01:01:56.718Z,17.73
2016-05-05T01:02:56.675Z,17.76
2016-05-05T01:03:56.645Z,17.8
2016-05-05T01:04:56.601Z,17.76
2016-05-05T01:05:56.542Z,17.79
2016-05-05T01:06:56.342Z,17.76
2016-05-05T01:07:56.469Z,17.73
2016-05-05T01:08:59.677Z,17.71
2016-05-05T01:09:56.380Z,17.73
2016-05-05T01:10:56.383Z,17.87
2016-05-05T01:11:56.277Z,17.87
2016-05-05T01:12:56.263Z,17.75
2016-05-05T01:13:56.188Z,17.73
2016-05-05T01:14:56.160Z,17.75
2016-05-05T01:15:59.131Z,17.75
2016-05-05T01:16:59.056Z,17.76
2016-05-05T01:17:56.027Z,17.73
2016-05-05T01:18:58.811Z,17.72
2016-05-05T01:19:55.907Z,17.78
2016-05-05T01:20:58.566Z,17.71
2016-05-05T01:21:55.819Z,17.75
2016-05-05T01:22:58.807Z,17.84
2016-05-05T01:23:55.746Z,17.69
2016-05-05T01:24:58.921Z,17.72
2016-05-05T01:25:55.658Z,17.75
2016-05-05T01:26:55.599Z,17.68
2016-05-05T01:27:55.570Z,17.66
2016-05-05T01:28:58.541Z,17.82
2016-05-05T01:29:55.497Z,17.75
2016-05-05T01:30:55.640Z,17.71
2016-05-05T01:31:55.378Z,17.65
2016-05-05T01:32:55.349Z,17.75
2016-05-05T01:33:55.117Z,17.66
2016-05-05T01:34:55.261Z,17.75
2016-05-05T01:35:55.404Z,17.78
2016-05-05T01:37:01.190Z,17.78
2016-05-05T01:38:01.115Z,17.76
2016-05-05T01:38:54.943Z,17.68
2016-05-05T01:39:58.024Z,17.76
2016-05-05T01:40:54.823Z,17.82
2016-05-05T01:41:54.951Z,17.75
2016-05-05T01:42:54.751Z,17.76
2016-05-05T01:43:57.847Z,17.69
2016-05-05T01:44:54.803Z,17.69
2016-05-05T01:45:57.603Z,17.69
2016-05-05T01:46:54.714Z,17.71
2016-05-05T01:47:54.670Z,17.71
2016-05-05T01:48:57.626Z,17.66
2016-05-05T01:49:54.394Z,17.76
2016-05-05T01:50:58.960Z,17.63
2016-05-05T01:51:57.588Z,17.65
2016-05-05T01:52:54.455Z,17.65
2016-05-05T01:53:57.453Z,17.69
2016-05-05T01:54:54.452Z,17.68
2016-05-05T01:55:54.294Z,17.8
2016-05-05T01:56:57.464Z,17.69
2016-05-05T01:57:54.918Z,17.69
2016-05-05T01:58:54.404Z,17.75
2016-05-05T01:59:54.219Z,17.69
2016-05-05T02:00:54.550Z,17.66
2016-05-05T02:01:54.303Z,17.66
2016-05-05T02:03:00.144Z,17.69
2016-05-05T02:04:58.129Z,17.68
2016-05-05T02:06:01.092Z,17.78
2016-05-05T02:07:01.069Z,17.66
2016-05-05T02:07:57.997Z,17.66
2016-05-05T02:08:58.330Z,17.71
2016-05-05T02:09:57.913Z,17.68
2016-05-05T02:11:00.886Z,17.65
2016-05-05T02:12:00.827Z,17.78
2016-05-05T02:12:57.988Z,17.68
2016-05-05T02:14:00.758Z,17.75
2016-05-05T02:15:00.682Z,17.65
2016-05-05T02:15:57.656Z,17.65
2016-05-05T02:16:57.611Z,17.68
2016-05-05T02:17:57.755Z,17.65
2016-05-05T02:19:00.555Z,17.66
2016-05-05T02:19:57.480Z,17.68
2016-05-05T02:20:57.421Z,17.69
2016-05-05T02:22:00.392Z,17.66
2016-05-05T02:23:04.135Z,17.69
2016-05-05T02:23:57.291Z,17.69
2016-05-05T02:25:00.262Z,17.65
2016-05-05T02:25:57.187Z,17.63
2016-05-05T02:26:57.017Z,17.65
2016-05-05T02:27:57.129Z,17.66
2016-05-05T02:28:57.101Z,17.66
2016-05-05T02:29:56.901Z,17.71
2016-05-05T02:31:02.998Z,17.69
2016-05-05T02:31:59.953Z,17.66
2016-05-05T02:33:00.096Z,17.63
2016-05-05T02:33:59.708Z,17.65
2016-05-05T02:34:57.226Z,17.66
2016-05-05T02:35:59.604Z,17.68
2016-05-05T02:36:59.716Z,17.68
2016-05-05T02:37:59.734Z,17.65
2016-05-05T02:38:56.456Z,17.69
2016-05-05T02:39:56.568Z,17.66
2016-05-05T02:40:56.525Z,17.71
2016-05-05T02:41:59.495Z,17.65
2016-05-05T02:42:59.451Z,17.63
2016-05-05T02:43:56.391Z,17.66
2016-05-05T02:44:56.364Z,17.65
2016-05-05T02:45:56.303Z,17.71
2016-05-05T02:47:02.336Z,17.65
2016-05-05T02:48:02.199Z,17.65
2016-05-05T02:48:56.186Z,17.69
2016-05-05T02:49:56.141Z,17.63
2016-05-05T02:50:58.958Z,17.66
2016-05-05T02:51:56.444Z,17.65
2016-05-05T02:53:02.025Z,17.63
2016-05-05T02:53:55.777Z,17.6
2016-05-05T02:54:55.796Z,17.65
2016-05-05T02:55:55.861Z,17.6
2016-05-05T02:56:58.833Z,17.63
2016-05-05T02:57:59.195Z,17.71
2016-05-05T02:58:55.729Z,17.71
2016-05-05T02:59:55.685Z,17.63
2016-05-05T03:00:58.875Z,17.63
2016-05-05T03:01:55.440Z,17.68
2016-05-05T03:02:55.552Z,17.66
2016-05-05T03:03:55.507Z,17.69
2016-05-05T03:04:58.464Z,17.65
2016-05-05T03:05:58.763Z,17.63
2016-05-05T03:07:04.453Z,17.65
2016-05-05T03:07:55.331Z,17.68
2016-05-05T03:09:01.818Z,17.69
2016-05-05T03:09:55.103Z,17.63
2016-05-05T03:10:55.073Z,17.69
2016-05-05T03:11:55.200Z,17.63
2016-05-05T03:12:55.110Z,17.66
2016-05-05T03:13:55.050Z,17.66
2016-05-05T03:14:58.022Z,17.68
2016-05-05T03:15:54.805Z,17.6
2016-05-05T03:16:54.917Z,17.63
2016-05-05T03:17:57.717Z,17.66
2016-05-05T03:18:54.845Z,17.66
2016-05-05T03:19:54.989Z,17.59
2016-05-05T03:20:54.757Z,17.65
2016-05-05T03:21:57.571Z,17.65
2016-05-05T03:22:54.855Z,17.66
2016-05-05T03:23:54.593Z,17.71
2016-05-05T03:24:54.814Z,17.68
2016-05-05T03:25:54.505Z,17.65
2016-05-05T03:26:54.476Z,17.63
2016-05-05T03:27:57.432Z,17.65
2016-05-05T03:28:54.574Z,17.68
2016-05-05T03:29:54.360Z,17.6
2016-05-05T03:31:00.502Z,17.63
2016-05-05T03:31:57.239Z,17.63
2016-05-05T03:32:54.195Z,17.68
2016-05-05T03:33:57.167Z,17.65
2016-05-05T03:35:00.107Z,17.66
2016-05-05T03:35:54.063Z,17.63
2016-05-05T03:36:54.003Z,17.68
2016-05-05T03:37:53.834Z,17.66
2016-05-05T03:38:56.946Z,17.68
2016-05-05T03:39:54.292Z,17.68
2016-05-05T03:40:53.857Z,17.63
2016-05-05T03:41:56.813Z,17.63
2016-05-05T03:42:53.753Z,17.6
2016-05-05T03:43:56.772Z,17.68
2016-05-05T03:44:53.665Z,17.71
2016-05-05T03:45:56.667Z,17.65
2016-05-05T03:46:59.561Z,17.6
2016-05-05T03:47:53.533Z,17.63
2016-05-05T03:48:53.473Z,17.66
2016-05-05T03:49:53.131Z,17.68
2016-05-05T03:50:53.227Z,17.66
2016-05-05T03:51:56.386Z,17.59
2016-05-05T03:52:53.296Z,17.71
2016-05-05T03:53:53.095Z,17.68
2016-05-05T03:54:53.957Z,17.66
2016-05-05T03:55:53.007Z,17.69
2016-05-05T03:56:56.135Z,17.71
2016-05-05T03:57:56.325Z,17.66
2016-05-05T03:58:53.030Z,17.66
2016-05-05T03:59:55.846Z,17.65
2016-05-05T04:00:58.801Z,17.63
2016-05-05T04:01:56.242Z,17.66
2016-05-05T04:03:02.088Z,17.71
2016-05-05T04:03:55.793Z,17.59
2016-05-05T04:04:52.796Z,17.6
2016-05-05T04:05:52.565Z,17.65
2016-05-05T04:06:52.662Z,17.65
2016-05-05T04:07:52.618Z,17.65
2016-05-05T04:08:58.604Z,17.63
2016-05-05T04:09:52.889Z,17.66
2016-05-05T04:10:52.484Z,17.59
2016-05-05T04:11:52.284Z,17.63
2016-05-05T04:12:55.475Z,17.66
2016-05-05T04:13:55.368Z,17.6
2016-05-05T04:14:52.308Z,17.6
2016-05-05T04:15:52.248Z,17.56
2016-05-05T04:16:52.048Z,17.69
2016-05-05T04:17:52.192Z,17.66
2016-05-05T04:18:55.131Z,17.68
2016-05-05T04:19:51.931Z,17.71
2016-05-05T04:20:55.261Z,17.65
2016-05-05T04:21:52.014Z,17.66
2016-05-05T04:22:51.783Z,17.66
2016-05-05T04:23:51.910Z,17.66
2016-05-05T04:24:52.210Z,17.66
2016-05-05T04:25:51.494Z,17.66
2016-05-05T04:26:51.606Z,17.6
2016-05-05T04:27:51.719Z,17.66
2016-05-05T04:28:54.518Z,17.6
2016-05-05T04:29:51.318Z,17.6
2016-05-05T04:30:51.585Z,17.59
2016-05-05T04:32:00.619Z,17.63
2016-05-05T04:32:51.497Z,17.6
2016-05-05T04:33:51.453Z,17.65
2016-05-05T04:34:54.627Z,17.59
2016-05-05T04:35:51.348Z,17.66
2016-05-05T04:36:54.337Z,17.56
2016-05-05T04:37:51.276Z,17.66
2016-05-05T04:38:51.451Z,17.71
2016-05-05T04:39:51.720Z,17.6
2016-05-05T04:40:51.128Z,17.63
2016-05-05T04:41:54.287Z,17.63
2016-05-05T04:42:57.071Z,17.68
2016-05-05T04:43:50.995Z,17.6
2016-05-05T04:44:54.373Z,17.59
2016-05-05T04:45:50.892Z,17.65
2016-05-05T04:46:51.239Z,17.63
2016-05-05T04:47:50.819Z,17.59
2016-05-05T04:48:50.649Z,17.59
2016-05-05T04:49:50.731Z,17.57
2016-05-05T04:50:50.545Z,17.71
2016-05-05T04:51:50.345Z,17.57
2016-05-05T04:52:53.597Z,17.65
2016-05-05T04:53:50.539Z,17.6
2016-05-05T04:54:50.681Z,17.56
2016-05-05T04:55:53.683Z,17.59
2016-05-05T04:56:50.406Z,17.54
2016-05-05T04:57:50.205Z,17.56
2016-05-05T04:58:50.176Z,17.63
2016-05-05T04:59:53.289Z,17.5
2016-05-05T05:00:50.072Z,17.57
2016-05-05T05:01:50.029Z,17.6
2016-05-05T05:02:50.157Z,17.57
2016-05-05T05:03:50.143Z,17.56
2016-05-05T05:04:50.067Z,17.6
2016-05-05T05:05:53.085Z,17.66
2016-05-05T05:06:52.996Z,17.56
2016-05-05T05:07:49.888Z,17.69
2016-05-05T05:08:52.876Z,17.54
2016-05-05T05:09:49.956Z,17.52
2016-05-05T05:10:49.771Z,17.63
2016-05-05T05:11:49.586Z,17.66
2016-05-05T05:12:52.543Z,17.54
2016-05-05T05:13:49.482Z,17.57
2016-05-05T05:14:49.610Z,17.66
2016-05-05T05:15:49.410Z,17.53
2016-05-05T05:16:49.569Z,17.52
2016-05-05T05:17:49.680Z,17.56
2016-05-05T05:18:49.433Z,17.63
2016-05-05T05:19:52.405Z,17.68
2016-05-05T05:20:49.564Z,17.6
2016-05-05T05:21:49.301Z,17.56
2016-05-05T05:22:49.085Z,17.6
2016-05-05T05:23:49.400Z,17.57
2016-05-05T05:24:52.700Z,17.54
2016-05-05T05:25:49.093Z,17.6
2016-05-05T05:26:49.049Z,17.56
2016-05-05T05:27:49.019Z,17.6
2016-05-05T05:28:48.663Z,17.57
2016-05-05T05:29:51.916Z,17.6
2016-05-05T05:30:51.903Z,17.66
2016-05-05T05:31:49.046Z,17.5
2016-05-05T05:32:48.627Z,17.59
2016-05-05T05:33:48.755Z,17.63
2016-05-05T05:34:48.695Z,17.52
2016-05-05T05:35:48.651Z,17.6
2016-05-05T05:36:48.607Z,17.56
2016-05-05T05:37:48.578Z,17.56
2016-05-05T05:38:48.518Z,17.52
2016-05-05T05:39:48.506Z,17.56
2016-05-05T05:40:48.290Z,17.65
2016-05-05T05:41:48.417Z,17.59
2016-05-05T05:42:51.342Z,17.54
2016-05-05T05:43:48.312Z,17.57
2016-05-05T05:44:48.269Z,17.57
2016-05-05T05:45:48.209Z,17.59
2016-05-05T05:46:48.228Z,17.57
2016-05-05T05:47:48.120Z,17.56
2016-05-05T05:48:47.920Z,17.56
2016-05-05T05:49:48.017Z,17.54
2016-05-05T05:50:48.066Z,17.57
2016-05-05T05:51:47.959Z,17.59
2016-05-05T05:52:47.900Z,17.59
2016-05-05T05:53:47.855Z,17.52
2016-05-05T05:54:48.561Z,17.57
2016-05-05T05:55:47.767Z,17.6
2016-05-05T05:56:47.722Z,17.54
2016-05-05T05:57:50.679Z,17.6
2016-05-05T05:58:47.619Z,17.59
2016-05-05T05:59:47.591Z,17.59
2016-05-05T06:00:47.530Z,17.56
2016-05-05T06:01:47.486Z,17.6
2016-05-05T06:02:53.504Z,17.59
2016-05-05T06:03:47.398Z,17.6
2016-05-05T06:04:47.198Z,17.56
2016-05-05T06:05:50.513Z,17.57
2016-05-05T06:06:47.266Z,17.5
2016-05-05T06:07:47.065Z,17.6
2016-05-05T06:08:47.176Z,17.54
2016-05-05T06:09:50.476Z,17.54
2016-05-05T06:10:47.105Z,17.54
2016-05-05T06:11:47.092Z,17.57
2016-05-05T06:12:55.922Z,17.57
2016-05-05T06:13:46.956Z,17.53
2016-05-05T06:14:52.912Z,17.56
2016-05-05T06:15:46.898Z,17.59
2016-05-05T06:16:49.823Z,17.57
2016-05-05T06:17:49.779Z,17.6
2016-05-05T06:18:46.922Z,17.59
2016-05-05T06:19:49.675Z,17.52
2016-05-05T06:20:49.631Z,17.59
2016-05-05T06:21:46.462Z,17.56
2016-05-05T06:22:46.574Z,17.54
2016-05-05T06:23:46.493Z,17.6
2016-05-05T06:24:47.199Z,17.56
2016-05-05T06:25:46.404Z,17.56
2016-05-05T06:26:46.377Z,17.56
2016-05-05T06:27:46.160Z,17.59
2016-05-05T06:28:46.271Z,17.52
2016-05-05T06:29:49.274Z,17.59
2016-05-05T06:30:46.184Z,17.54
2016-05-05T06:31:49.358Z,17.65
2016-05-05T06:32:46.127Z,17.54
2016-05-05T06:33:46.035Z,17.57
2016-05-05T06:34:46.226Z,17.56
2016-05-05T06:35:48.962Z,17.5
2016-05-05T06:36:48.918Z,17.54
2016-05-05T06:37:51.906Z,17.6
2016-05-05T06:38:45.830Z,17.57
2016-05-05T06:39:45.629Z,17.53
2016-05-05T06:40:46.648Z,17.56
2016-05-05T06:41:45.556Z,17.54
2016-05-05T06:42:45.685Z,17.56
2016-05-05T06:43:45.625Z,17.63
2016-05-05T06:44:48.643Z,17.57
2016-05-05T06:45:48.536Z,17.56
2016-05-05T06:46:45.336Z,17.54
2016-05-05T06:47:45.433Z,17.56
2016-05-05T06:48:45.388Z,17.63
2016-05-05T06:49:45.344Z,17.59
2016-05-05T06:50:45.269Z,17.63
2016-05-05T06:51:45.443Z,17.63
2016-05-05T06:52:45.164Z,17.59
2016-05-05T06:53:45.183Z,17.57
2016-05-05T06:54:45.327Z,17.56
2016-05-05T06:55:48.079Z,17.57
2016-05-05T06:56:45.004Z,17.56
2016-05-05T06:57:47.960Z,17.66
2016-05-05T06:58:47.790Z,17.54
2016-05-05T06:59:47.887Z,17.56
2016-05-05T07:00:44.842Z,17.57
2016-05-05T07:01:44.814Z,17.53
2016-05-05T07:02:44.598Z,17.6
2016-05-05T07:03:44.694Z,17.53
2016-05-05T07:04:44.651Z,17.54
2016-05-05T07:05:44.607Z,17.57
2016-05-05T07:06:47.562Z,17.59
2016-05-05T07:07:44.518Z,17.56
2016-05-05T07:08:47.473Z,17.54
2016-05-05T07:09:44.429Z,17.54
2016-05-05T07:10:44.385Z,17.56
2016-05-05T07:11:47.340Z,17.57
2016-05-05T07:12:44.281Z,17.54
2016-05-05T07:13:44.096Z,17.5
2016-05-05T07:14:44.428Z,17.54
2016-05-05T07:15:44.148Z,17.5
2016-05-05T07:16:43.978Z,17.54
2016-05-05T07:17:44.264Z,17.53
2016-05-05T07:18:44.031Z,17.52
2016-05-05T07:19:43.987Z,17.57
2016-05-05T07:20:50.146Z,17.59
2016-05-05T07:21:46.883Z,17.54
2016-05-05T07:22:49.855Z,17.54
2016-05-05T07:23:46.794Z,17.54
2016-05-05T07:24:44.188Z,17.54
2016-05-05T07:25:46.722Z,17.54
2016-05-05T07:26:46.866Z,17.56
2016-05-05T07:27:52.868Z,17.59
2016-05-05T07:28:46.558Z,17.66
2016-05-05T07:29:43.514Z,17.53
2016-05-05T07:30:43.705Z,17.56
2016-05-05T07:31:43.441Z,17.54
2016-05-05T07:32:43.413Z,17.53
2016-05-05T07:33:46.400Z,17.53
2016-05-05T07:34:43.309Z,17.54
2016-05-05T07:35:43.280Z,17.54
2016-05-05T07:36:46.221Z,17.56
2016-05-05T07:37:46.192Z,17.54
2016-05-05T07:38:46.132Z,17.63
2016-05-05T07:39:42.947Z,17.56
2016-05-05T07:40:46.060Z,17.56
2016-05-05T07:41:48.906Z,17.59
2016-05-05T07:42:43.455Z,17.52
2016-05-05T07:43:42.896Z,17.63
2016-05-05T07:44:42.742Z,17.54
2016-05-05T07:45:42.807Z,17.54
2016-05-05T07:46:42.747Z,17.63
2016-05-05T07:47:48.750Z,17.6
2016-05-05T07:48:45.675Z,17.63
2016-05-05T07:49:42.614Z,17.54
2016-05-05T07:50:42.415Z,17.65
2016-05-05T07:51:42.730Z,17.56
2016-05-05T07:52:45.498Z,17.6
2016-05-05T07:53:42.438Z,17.57
2016-05-05T07:54:46.300Z,17.59
2016-05-05T07:55:45.365Z,17.56
2016-05-05T07:56:42.711Z,17.54
2016-05-05T07:57:42.089Z,17.6
2016-05-05T07:58:42.202Z,17.63
2016-05-05T07:59:42.049Z,17.54
2016-05-05T08:00:42.316Z,17.59
2016-05-05T08:01:42.100Z,17.56
2016-05-05T08:02:42.056Z,17.46
2016-05-05T08:03:42.418Z,17.54
2016-05-05T08:04:41.952Z,17.53
2016-05-05T08:05:41.908Z,17.57
2016-05-05T08:06:41.708Z,17.56
2016-05-05T08:07:41.820Z,17.56
2016-05-05T08:08:44.618Z,17.54
2016-05-05T08:09:47.919Z,17.52
2016-05-05T08:10:41.531Z,17.57
2016-05-05T08:11:41.831Z,17.56
2016-05-05T08:12:41.489Z,17.59
2016-05-05T08:13:44.539Z,17.6
2016-05-05T08:14:41.510Z,17.59
2016-05-05T08:15:44.310Z,17.65
2016-05-05T08:16:41.422Z,17.56
2016-05-05T08:17:41.627Z,17.56
2016-05-05T08:18:41.334Z,17.53
2016-05-05T08:19:44.273Z,17.56
2016-05-05T08:20:41.230Z,17.56
2016-05-05T08:21:41.029Z,17.6
2016-05-05T08:22:41.173Z,17.57
2016-05-05T08:23:45.550Z,17.53
2016-05-05T08:24:41.069Z,17.54
2016-05-05T08:25:41.008Z,17.57
2016-05-05T08:26:40.980Z,17.53
2016-05-05T08:27:41.124Z,17.56
2016-05-05T08:28:40.939Z,17.52
2016-05-05T08:29:40.816Z,17.56
2016-05-05T08:30:40.788Z,17.53
2016-05-05T08:31:40.744Z,17.57
2016-05-05T08:32:40.683Z,17.52
2016-05-05T08:33:40.640Z,17.52
2016-05-05T08:34:40.611Z,17.57
2016-05-05T08:35:40.551Z,17.56
2016-05-05T08:36:43.726Z,17.56
2016-05-05T08:37:40.494Z,17.65
2016-05-05T09:16:46.084Z,18.49
2016-05-05T09:17:43.071Z,18.19
2016-05-05T09:18:43.025Z,17.98
2016-05-05T09:19:45.935Z,17.79
2016-05-05T09:20:46.078Z,17.54
2016-05-05T09:21:45.690Z,17.27
2016-05-05T09:22:42.772Z,17.09
2016-05-05T09:23:42.695Z,17.01
2016-05-05T09:24:42.933Z,16.86
2016-05-05T09:25:45.607Z,16.66
2016-05-05T09:26:42.454Z,16.74
2016-05-05T09:27:45.956Z,16.66
2016-05-05T09:28:42.444Z,16.62
2016-05-05T09:29:42.492Z,16.72
2016-05-05T09:30:45.591Z,16.72
2016-05-05T09:31:45.301Z,16.66
2016-05-05T09:32:42.843Z,16.72
2016-05-05T09:33:45.216Z,16.72
2016-05-05T09:34:42.171Z,16.73
2016-05-05T09:35:45.127Z,16.77
2016-05-05T09:36:42.099Z,16.82
2016-05-05T09:37:42.022Z,16.79
2016-05-05T09:38:41.962Z,16.76
2016-05-05T09:39:42.122Z,16.8
2016-05-05T09:40:41.859Z,16.77
2016-05-05T09:41:41.862Z,16.72
2016-05-05T09:42:41.765Z,16.72
2016-05-05T09:43:41.815Z,16.68
2016-05-05T09:44:44.661Z,16.66
2016-05-05T09:45:47.491Z,16.74
2016-05-05T09:46:41.479Z,16.82
2016-05-05T09:47:45.434Z,16.82
2016-05-05T09:48:41.484Z,16.97
2016-05-05T09:49:44.487Z,17.05
2016-05-05T09:50:41.583Z,17.05
2016-05-05T09:51:41.336Z,17.09
2016-05-05T09:52:41.183Z,17.22
2016-05-05T09:53:41.106Z,17.22
2016-05-05T09:54:41.203Z,17.23
2016-05-05T09:55:44.175Z,17.24
2016-05-05T09:56:40.974Z,17.2
2016-05-05T09:57:41.071Z,17.2
2016-05-05T09:58:41.230Z,17.22
2016-05-05T09:59:43.997Z,17.28
2016-05-05T10:00:40.922Z,17.3
2016-05-05T10:01:40.722Z,17.37
2016-05-05T10:02:40.709Z,17.38
2016-05-05T10:03:41.008Z,17.39
2016-05-05T10:04:40.417Z,17.39
2016-05-05T10:05:40.670Z,17.37
2016-05-05T10:06:40.657Z,17.41
2016-05-05T10:07:40.582Z,17.42
2016-05-05T10:08:40.521Z,17.53
2016-05-05T10:09:40.509Z,17.65
2016-05-05T10:10:44.152Z,17.57
2016-05-05T10:11:43.389Z,17.66
2016-05-05T10:12:40.190Z,17.6
2016-05-05T10:13:40.317Z,17.63
2016-05-05T10:14:43.459Z,17.65
2016-05-05T10:15:40.245Z,17.68
2016-05-05T10:16:40.168Z,17.59
2016-05-05T10:17:43.186Z,17.73
2016-05-05T10:18:40.065Z,17.73
2016-05-05T10:19:40.036Z,17.76
2016-05-05T10:20:40.007Z,17.82
2016-05-05T10:21:39.932Z,17.73
2016-05-05T10:22:40.200Z,17.8
2016-05-05T10:23:39.812Z,17.86
2016-05-05T10:24:40.627Z,17.97
2016-05-05T10:25:39.739Z,17.94
2016-05-05T10:26:39.883Z,17.93
2016-05-05T10:27:40.042Z,17.9
2016-05-05T10:28:42.419Z,17.98
2016-05-05T10:29:42.547Z,17.93
2016-05-05T10:30:39.502Z,17.98
2016-05-05T10:31:39.443Z,17.93
2016-05-05T10:32:39.416Z,18.02
2016-05-05T10:33:39.371Z,17.94
2016-05-05T10:34:39.405Z,17.97
2016-05-05T10:35:39.126Z,17.9
2016-05-05T10:36:39.301Z,17.97
2016-05-05T10:37:39.194Z,18.03
2016-05-05T10:38:39.118Z,18.09
2016-05-05T10:39:39.090Z,18.12
2016-05-05T10:40:38.873Z,18.12
2016-05-05T10:41:38.985Z,18.09
2016-05-05T10:42:38.785Z,18.19
2016-05-05T10:43:41.913Z,18.24
2016-05-05T10:44:38.868Z,18.23
2016-05-05T10:45:38.840Z,18.16
2016-05-05T10:46:38.953Z,18.13
2016-05-05T10:47:38.706Z,18.11
2016-05-05T10:48:38.645Z,18.09
2016-05-05T10:49:38.617Z,18.05
2016-05-05T10:50:38.588Z,18.05
2016-05-05T10:51:41.544Z,18.02
2016-05-05T10:52:41.484Z,17.98
2016-05-05T10:53:38.314Z,18
2016-05-05T10:54:38.427Z,17.98
2016-05-05T10:55:38.180Z,18.12
2016-05-05T10:56:38.167Z,18.06
2016-05-05T10:57:38.247Z,18.18
2016-05-05T10:58:38.360Z,18.18
2016-05-05T10:59:38.219Z,18.27
2016-05-05T11:00:38.249Z,18.39
2016-05-05T11:01:38.093Z,18.45
2016-05-05T11:02:38.483Z,18.63
2016-05-05T11:03:38.024Z,18.79
2016-05-05T11:04:38.153Z,18.73
2016-05-05T11:05:38.124Z,18.68
2016-05-05T11:06:38.127Z,18.79
2016-05-05T11:07:41.083Z,18.74
2016-05-05T11:08:37.892Z,18.78
2016-05-05T11:09:38.165Z,18.71
2016-05-05T11:10:37.861Z,18.88
2016-05-05T11:11:37.900Z,18.76
2016-05-05T11:12:37.971Z,18.74
2016-05-05T11:13:37.819Z,18.81
2016-05-05T11:14:37.777Z,18.79
2016-05-05T11:15:37.766Z,18.88
2016-05-05T11:16:37.536Z,18.86
2016-05-05T11:17:37.837Z,18.76
2016-05-05T11:18:37.592Z,18.76
2016-05-05T11:19:40.564Z,18.82
2016-05-05T11:20:37.505Z,18.83
2016-05-05T11:21:37.555Z,18.97
2016-05-05T11:22:37.746Z,18.97
2016-05-05T11:23:37.402Z,18.86
2016-05-05T11:24:40.202Z,18.89
2016-05-05T11:25:40.486Z,18.94
2016-05-05T11:26:37.255Z,18.94
2016-05-05T11:27:37.196Z,19.05
2016-05-05T11:28:36.980Z,19.15
2016-05-05T11:29:37.139Z,19.16
2016-05-05T11:30:40.079Z,19.15
2016-05-05T11:31:37.036Z,19.08
2016-05-05T11:32:36.976Z,19.16
2016-05-05T11:33:36.931Z,19.07
2016-05-05T11:34:36.855Z,19.05
2016-05-05T11:35:39.718Z,19
2016-05-05T11:36:36.783Z,19.16
2016-05-05T11:37:36.723Z,19.17
2016-05-05T11:38:36.679Z,19.2
2016-05-05T11:39:36.480Z,19.24
2016-05-05T11:40:36.685Z,19.42
2016-05-05T11:41:36.594Z,19.52
2016-05-05T11:42:36.502Z,19.55
2016-05-05T11:43:39.458Z,19.55
2016-05-05T11:44:36.273Z,19.49
2016-05-05T11:45:39.371Z,19.48
2016-05-05T11:46:39.326Z,19.47
2016-05-05T11:47:39.766Z,19.49
2016-05-05T11:48:39.221Z,19.42
2016-05-05T11:49:45.240Z,19.49
2016-05-05T11:50:36.134Z,19.55
2016-05-05T11:51:39.292Z,19.53
2016-05-05T11:52:39.060Z,19.64
2016-05-05T11:53:39.001Z,19.64
2016-05-05T11:54:39.223Z,19.66
2016-05-05T11:55:35.741Z,19.6
2016-05-05T11:56:36.165Z,19.7
2016-05-05T11:57:38.809Z,19.75
2016-05-05T11:58:38.983Z,19.74
2016-05-05T11:59:38.720Z,19.77
2016-05-05T12:00:35.581Z,19.77
2016-05-05T12:01:35.663Z,19.87
2016-05-05T12:02:41.431Z,19.94
2016-05-05T12:03:35.559Z,20.02
2016-05-05T12:04:38.359Z,20.14
2016-05-05T12:05:38.455Z,20.27
2016-05-05T12:06:38.411Z,20.37
2016-05-05T12:07:38.210Z,20.42
2016-05-05T12:08:38.525Z,20.37
2016-05-05T12:09:38.372Z,20.42
2016-05-05T12:10:38.438Z,20.26
2016-05-05T12:11:38.486Z,20.26
2016-05-05T12:12:35.146Z,20.34
2016-05-05T12:13:35.085Z,20.24
2016-05-05T12:14:38.057Z,20.29
2016-05-05T12:15:38.012Z,20.22
2016-05-05T12:16:37.829Z,20.27
2016-05-05T12:17:34.941Z,20.44
2016-05-05T12:18:34.880Z,20.5
2016-05-05T12:19:34.821Z,20.66
2016-05-05T12:20:37.776Z,20.73
2016-05-05T12:21:34.748Z,20.8
2016-05-05T12:22:35.140Z,20.82
2016-05-05T12:23:37.628Z,20.7
2016-05-05T12:24:40.616Z,20.66
2016-05-05T12:25:35.149Z,20.64
2016-05-05T12:26:34.824Z,20.66
2016-05-05T12:27:34.483Z,20.77
2016-05-05T12:28:34.626Z,20.71
2016-05-05T12:29:34.363Z,20.77
2016-05-05T12:30:40.335Z,20.75
2016-05-05T12:31:34.478Z,20.77
2016-05-05T12:32:37.230Z,20.78
2016-05-05T12:33:34.405Z,20.8
2016-05-05T12:34:34.189Z,20.83
2016-05-05T12:35:37.129Z,20.8
2016-05-05T12:36:34.053Z,20.8
2016-05-05T12:37:33.869Z,20.82
2016-05-05T12:38:36.966Z,20.88
2016-05-05T12:39:37.374Z,20.88
2016-05-05T12:40:36.877Z,20.98
2016-05-05T12:41:36.849Z,21.1
2016-05-05T12:42:33.804Z,20.92
2016-05-05T12:43:36.760Z,20.96
2016-05-05T12:44:33.700Z,20.98
2016-05-05T12:45:33.500Z,20.93
2016-05-05T12:46:39.627Z,21.08
2016-05-05T12:47:33.568Z,21.05
2016-05-05T12:48:33.430Z,20.93
2016-05-05T12:49:36.495Z,20.95
2016-05-05T12:51:00.295Z,20.93
2016-05-05T12:51:36.250Z,20.98
2016-05-05T12:52:33.346Z,21.07
2016-05-05T12:53:33.318Z,21.04
2016-05-05T12:54:42.118Z,21.05
2016-05-05T12:55:36.199Z,21.07
2016-05-05T12:56:36.373Z,21.11
2016-05-05T12:57:33.188Z,21.17
2016-05-05T12:58:32.894Z,21.17
2016-05-05T12:59:36.257Z,21.22
2016-05-05T13:00:32.837Z,21.3
2016-05-05T13:01:39.153Z,21.35
2016-05-05T13:02:33.123Z,21.43
2016-05-05T13:03:35.705Z,21.33
2016-05-05T13:04:32.801Z,21.22
2016-05-05T13:05:35.788Z,21.2
2016-05-05T13:06:35.713Z,21.17
2016-05-05T13:07:32.653Z,21.22
2016-05-05T13:08:32.890Z,21.19
2016-05-05T13:09:32.799Z,21.37
2016-05-05T13:10:35.552Z,21.38
2016-05-05T13:11:35.352Z,21.37
2016-05-05T13:12:32.447Z,21.4
2016-05-05T13:13:32.403Z,21.41
2016-05-05T13:14:35.640Z,21.44
2016-05-05T13:15:32.158Z,21.58
2016-05-05T13:16:35.302Z,21.59
2016-05-05T13:17:32.414Z,21.62
2016-05-05T13:18:32.432Z,21.58
2016-05-05T13:19:34.982Z,21.54
2016-05-05T13:20:31.938Z,21.56
2016-05-05T13:21:32.254Z,21.47
2016-05-05T13:22:32.037Z,21.51
2016-05-05T13:23:31.962Z,21.56
2016-05-05T13:24:32.246Z,21.56
2016-05-05T13:25:35.389Z,21.7
2016-05-05T13:26:35.251Z,21.83
2016-05-05T13:27:31.785Z,21.85
2016-05-05T13:28:31.740Z,21.94
2016-05-05T13:29:38.228Z,22.01
2016-05-05T13:30:31.653Z,22
2016-05-05T13:31:34.889Z,22.07
2016-05-05T13:32:31.595Z,22.08
2016-05-05T13:33:34.520Z,22.12
2016-05-05T13:34:31.585Z,22.06